Airfield :
LOGIN :

Register | Disclaimer

   EN    FR    IT 

 










Legend :    VFR   Marginal VFR   IFR   Intensive IFR   Very Intensive IFR
Visi :
Ceiling :
>= 8 km
>= 3000ft
5 to 8 km
1000 to 3000 ft
1500m to 5 km
500 to 1000 ft
800 to 1500m
200 to 500 ft
< 800m
< 200 ft
Symbols :   Thunderstorms  Fog  Heavy snow  Heavy precipitations  Wind > 20 kt
SIGMETs :     Misc.  Thunderstorms  Icing  Turbulence  Mountain Waves  Volcanic Ashes







- Airport Elevation : 236 ft
- IATA code : MMX


ESMS - Malmö Sturup

CURRENT METAR :
  • 181520Z 16006KT 9999 FEW020 BKN030 16/15 Q1004

EXPIRED METARs :
  • 181450Z 19012KT 7000 -RADZ BR FEW007 BKN030 17/15 Q1004
  • 181420Z 16008KT 8000 -RADZ BKN008 18/17 Q1004
  • 181350Z 16006KT 9999 -RA FEW009 18/17 Q1004
  • 181320Z 16007KT 9999 BKN008 18/17 Q1005
  • 181250Z 15008KT 9999 BKN009 18/17 Q1004

TAF TAF ESMS
Valid from the 18 at 12:00 until the 19 at 12:00 UTC


181106Z 1812/1912 23010KT 9999 BKN020
TEMPO 1812/1819 4000 SHRA BKN008 BKN020CB
PROB40 1901/1907 3000 BR
No reported NOTAMs for that airfield.



MET'MAP, your aeronautical weather chart ! - Copyright ORBIFLY December 2007 - Disclaimer

ORBIFLY MET'MAP TEAM :

Programming & Development : Alexandra Zaïnal
Concept & Development : Baudouin d'Aumeries
Co-Development & Prog : Marc-Olivier Méhu
Technical & hardware support : Manuel Goepfert

Contact : metmap@orbifly.com




SOURCES & CREDITS :

   NOAA